sensor_id;sensor_type;location;lat;lon;timestamp;temperature;humidity
26336;DHT22;14047;50.936;4.654;2024-01-07T00:01:56;4.00;99.90
26336;DHT22;14047;50.936;4.654;2024-01-07T00:04:22;4.10;99.90
26336;DHT22;14047;50.936;4.654;2024-01-07T00:06:48;4.10;99.90
26336;DHT22;14047;50.936;4.654;2024-01-07T00:09:16;3.90;99.90
26336;DHT22;14047;50.936;4.654;2024-01-07T00:11:42;4.00;99.90
26336;DHT22;14047;50.936;4.654;2024-01-07T00:14:08;4.00;99.90
26336;DHT22;14047;50.936;4.654;2024-01-07T00:16:34;4.10;99.90
26336;DHT22;14047;50.936;4.654;2024-01-07T00:19:00;4.10;99.90
26336;DHT22;14047;50.936;4.654;2024-01-07T00:21:26;4.10;99.90
26336;DHT22;14047;50.936;4.654;2024-01-07T00:23:52;4.20;99.90
26336;DHT22;14047;50.936;4.654;2024-01-07T00:26:18;4.00;99.90
26336;DHT22;14047;50.936;4.654;2024-01-07T00:28:44;4.10;99.90
26336;DHT22;14047;50.936;4.654;2024-01-07T00:31:12;4.20;99.90
26336;DHT22;14047;50.936;4.654;2024-01-07T00:33:38;4.20;99.90
26336;DHT22;14047;50.936;4.654;2024-01-07T00:36:04;4.10;99.90
26336;DHT22;14047;50.936;4.654;2024-01-07T00:38:30;4.30;99.90
26336;DHT22;14047;50.936;4.654;2024-01-07T00:40:56;4.20;99.90
26336;DHT22;14047;50.936;4.654;2024-01-07T00:43:22;4.20;99.90
26336;DHT22;14047;50.936;4.654;2024-01-07T00:45:48;4.00;99.90
26336;DHT22;14047;50.936;4.654;2024-01-07T00:48:14;3.90;99.90
26336;DHT22;14047;50.936;4.654;2024-01-07T00:50:41;3.90;99.90
26336;DHT22;14047;50.936;4.654;2024-01-07T00:53:07;3.70;99.90
26336;DHT22;14047;50.936;4.654;2024-01-07T00:55:33;3.70;99.90
26336;DHT22;14047;50.936;4.654;2024-01-07T00:58:01;3.90;99.90
26336;DHT22;14047;50.936;4.654;2024-01-07T01:00:27;3.80;99.90
26336;DHT22;14047;50.936;4.654;2024-01-07T01:02:54;3.60;99.90
26336;DHT22;14047;50.936;4.654;2024-01-07T01:05:20;3.40;99.90
26336;DHT22;14047;50.936;4.654;2024-01-07T01:07:46;3.50;99.90
26336;DHT22;14047;50.936;4.654;2024-01-07T01:10:12;3.40;99.90
26336;DHT22;14047;50.936;4.654;2024-01-07T01:12:43;3.40;99.90
26336;DHT22;14047;50.936;4.654;2024-01-07T01:15:10;3.60;99.90
26336;DHT22;14047;50.936;4.654;2024-01-07T01:17:36;3.50;99.90
26336;DHT22;14047;50.936;4.654;2024-01-07T01:20:02;3.50;99.90
26336;DHT22;14047;50.936;4.654;2024-01-07T01:22:29;3.60;99.90
26336;DHT22;14047;50.936;4.654;2024-01-07T01:24:55;3.50;99.90
26336;DHT22;14047;50.936;4.654;2024-01-07T01:27:22;3.70;99.90
26336;DHT22;14047;50.936;4.654;2024-01-07T01:29:48;3.80;99.90
26336;DHT22;14047;50.936;4.654;2024-01-07T01:32:14;3.50;99.90
26336;DHT22;14047;50.936;4.654;2024-01-07T01:34:40;3.40;99.90
26336;DHT22;14047;50.936;4.654;2024-01-07T01:37:08;3.40;99.90
26336;DHT22;14047;50.936;4.654;2024-01-07T01:39:34;3.50;99.90
26336;DHT22;14047;50.936;4.654;2024-01-07T01:42:00;3.40;99.90
26336;DHT22;14047;50.936;4.654;2024-01-07T01:44:26;3.40;99.90
26336;DHT22;14047;50.936;4.654;2024-01-07T01:46:54;3.40;99.90
26336;DHT22;14047;50.936;4.654;2024-01-07T01:49:22;3.50;99.90
26336;DHT22;14047;50.936;4.654;2024-01-07T01:51:48;3.40;99.90
26336;DHT22;14047;50.936;4.654;2024-01-07T01:54:15;3.30;99.90
26336;DHT22;14047;50.936;4.654;2024-01-07T01:56:42;3.50;99.90
26336;DHT22;14047;50.936;4.654;2024-01-07T01:59:08;3.50;99.90
26336;DHT22;14047;50.936;4.654;2024-01-07T02:01:35;3.40;99.90
26336;DHT22;14047;50.936;4.654;2024-01-07T02:04:01;3.10;99.90
26336;DHT22;14047;50.936;4.654;2024-01-07T02:06:27;3.20;99.90
26336;DHT22;14047;50.936;4.654;2024-01-07T02:08:53;3.30;99.90
26336;DHT22;14047;50.936;4.654;2024-01-07T02:11:21;3.20;99.90
26336;DHT22;14047;50.936;4.654;2024-01-07T02:13:48;3.00;99.90
26336;DHT22;14047;50.936;4.654;2024-01-07T02:16:15;3.00;99.90
26336;DHT22;14047;50.936;4.654;2024-01-07T02:18:42;3.10;99.90
26336;DHT22;14047;50.936;4.654;2024-01-07T02:21:09;3.20;99.90
26336;DHT22;14047;50.936;4.654;2024-01-07T02:23:36;3.20;99.90
26336;DHT22;14047;50.936;4.654;2024-01-07T02:26:02;3.20;99.90
26336;DHT22;14047;50.936;4.654;2024-01-07T02:28:29;3.20;99.90
26336;DHT22;14047;50.936;4.654;2024-01-07T02:30:55;3.20;99.90
26336;DHT22;14047;50.936;4.654;2024-01-07T02:33:21;3.10;99.90
26336;DHT22;14047;50.936;4.654;2024-01-07T02:35:47;3.00;99.90
26336;DHT22;14047;50.936;4.654;2024-01-07T02:38:13;3.10;99.90
26336;DHT22;14047;50.936;4.654;2024-01-07T02:40:39;3.10;99.90
26336;DHT22;14047;50.936;4.654;2024-01-07T02:43:05;3.10;99.90
26336;DHT22;14047;50.936;4.654;2024-01-07T02:45:31;3.10;99.90
26336;DHT22;14047;50.936;4.654;2024-01-07T02:47:57;3.20;99.90
26336;DHT22;14047;50.936;4.654;2024-01-07T02:50:23;3.40;99.90
26336;DHT22;14047;50.936;4.654;2024-01-07T02:52:49;3.30;99.90
26336;DHT22;14047;50.936;4.654;2024-01-07T02:55:15;3.10;99.90
26336;DHT22;14047;50.936;4.654;2024-01-07T02:57:41;3.10;99.90
26336;DHT22;14047;50.936;4.654;2024-01-07T03:00:08;3.30;99.90
26336;DHT22;14047;50.936;4.654;2024-01-07T03:02:34;3.40;99.90
26336;DHT22;14047;50.936;4.654;2024-01-07T03:05:00;3.30;99.90
26336;DHT22;14047;50.936;4.654;2024-01-07T03:07:26;3.20;99.90
26336;DHT22;14047;50.936;4.654;2024-01-07T03:09:51;3.30;99.90
26336;DHT22;14047;50.936;4.654;2024-01-07T03:12:17;3.20;99.90
26336;DHT22;14047;50.936;4.654;2024-01-07T03:14:43;3.10;99.90
26336;DHT22;14047;50.936;4.654;2024-01-07T03:17:10;3.20;99.90
26336;DHT22;14047;50.936;4.654;2024-01-07T03:19:40;3.20;99.90
26336;DHT22;14047;50.936;4.654;2024-01-07T03:22:07;2.90;99.90
26336;DHT22;14047;50.936;4.654;2024-01-07T03:24:33;2.90;99.90
26336;DHT22;14047;50.936;4.654;2024-01-07T03:26:59;3.00;99.90
26336;DHT22;14047;50.936;4.654;2024-01-07T03:29:25;2.70;99.90
26336;DHT22;14047;50.936;4.654;2024-01-07T03:31:51;2.50;99.90
26336;DHT22;14047;50.936;4.654;2024-01-07T03:34:19;2.60;99.90
26336;DHT22;14047;50.936;4.654;2024-01-07T03:36:45;2.60;99.90
26336;DHT22;14047;50.936;4.654;2024-01-07T03:39:11;2.40;99.90
26336;DHT22;14047;50.936;4.654;2024-01-07T03:41:37;2.40;99.90
26336;DHT22;14047;50.936;4.654;2024-01-07T03:44:03;2.40;99.90
26336;DHT22;14047;50.936;4.654;2024-01-07T03:46:29;2.60;99.90
26336;DHT22;14047;50.936;4.654;2024-01-07T03:48:55;2.80;99.90
26336;DHT22;14047;50.936;4.654;2024-01-07T03:51:21;2.70;99.90
26336;DHT22;14047;50.936;4.654;2024-01-07T03:53:47;2.80;99.90
26336;DHT22;14047;50.936;4.654;2024-01-07T03:56:13;3.00;99.90
26336;DHT22;14047;50.936;4.654;2024-01-07T03:58:39;2.80;99.90
26336;DHT22;14047;50.936;4.654;2024-01-07T04:01:05;2.80;99.90
26336;DHT22;14047;50.936;4.654;2024-01-07T04:03:31;3.00;99.90
26336;DHT22;14047;50.936;4.654;2024-01-07T04:05:57;2.80;99.90
26336;DHT22;14047;50.936;4.654;2024-01-07T04:08:23;2.70;99.90
26336;DHT22;14047;50.936;4.654;2024-01-07T04:10:49;2.70;99.90
26336;DHT22;14047;50.936;4.654;2024-01-07T04:13:15;2.90;99.90
26336;DHT22;14047;50.936;4.654;2024-01-07T04:15:41;2.90;99.90
26336;DHT22;14047;50.936;4.654;2024-01-07T04:18:07;2.90;99.90
26336;DHT22;14047;50.936;4.654;2024-01-07T04:20:33;2.90;99.90
26336;DHT22;14047;50.936;4.654;2024-01-07T04:22:59;3.10;99.90
26336;DHT22;14047;50.936;4.654;2024-01-07T04:25:25;3.30;99.90
26336;DHT22;14047;50.936;4.654;2024-01-07T04:27:51;3.20;99.90
26336;DHT22;14047;50.936;4.654;2024-01-07T04:30:17;3.00;99.90
26336;DHT22;14047;50.936;4.654;2024-01-07T04:32:43;3.10;99.90
26336;DHT22;14047;50.936;4.654;2024-01-07T04:35:09;3.00;99.90
26336;DHT22;14047;50.936;4.654;2024-01-07T04:37:35;3.10;99.90
26336;DHT22;14047;50.936;4.654;2024-01-07T04:40:02;3.30;99.90
26336;DHT22;14047;50.936;4.654;2024-01-07T04:42:28;3.50;99.90
26336;DHT22;14047;50.936;4.654;2024-01-07T04:44:54;3.60;99.90
26336;DHT22;14047;50.936;4.654;2024-01-07T04:47:28;3.40;99.90
26336;DHT22;14047;50.936;4.654;2024-01-07T04:49:55;3.10;99.90
26336;DHT22;14047;50.936;4.654;2024-01-07T04:52:24;3.20;99.90
26336;DHT22;14047;50.936;4.654;2024-01-07T04:54:51;3.20;99.90
26336;DHT22;14047;50.936;4.654;2024-01-07T04:57:18;3.40;99.90
26336;DHT22;14047;50.936;4.654;2024-01-07T04:59:44;3.20;99.90
26336;DHT22;14047;50.936;4.654;2024-01-07T05:02:10;2.80;99.90
26336;DHT22;14047;50.936;4.654;2024-01-07T05:04:36;2.60;99.90
26336;DHT22;14047;50.936;4.654;2024-01-07T05:07:03;2.80;99.90
26336;DHT22;14047;50.936;4.654;2024-01-07T05:09:29;3.00;99.90
26336;DHT22;14047;50.936;4.654;2024-01-07T05:11:55;3.10;99.90
26336;DHT22;14047;50.936;4.654;2024-01-07T05:14:21;3.20;99.90
26336;DHT22;14047;50.936;4.654;2024-01-07T05:16:48;3.20;99.90
26336;DHT22;14047;50.936;4.654;2024-01-07T05:19:14;3.30;99.90
26336;DHT22;14047;50.936;4.654;2024-01-07T05:21:40;3.30;99.90
26336;DHT22;14047;50.936;4.654;2024-01-07T05:24:06;3.40;99.90
26336;DHT22;14047;50.936;4.654;2024-01-07T05:26:41;3.20;99.90
26336;DHT22;14047;50.936;4.654;2024-01-07T05:29:08;3.10;99.90
26336;DHT22;14047;50.936;4.654;2024-01-07T05:31:34;2.80;99.90
26336;DHT22;14047;50.936;4.654;2024-01-07T05:33:59;3.00;99.90
26336;DHT22;14047;50.936;4.654;2024-01-07T05:36:25;3.00;99.90
26336;DHT22;14047;50.936;4.654;2024-01-07T05:38:51;3.00;99.90
26336;DHT22;14047;50.936;4.654;2024-01-07T05:41:17;2.80;99.90
26336;DHT22;14047;50.936;4.654;2024-01-07T05:43:43;2.80;99.90
26336;DHT22;14047;50.936;4.654;2024-01-07T05:46:09;2.70;99.90
26336;DHT22;14047;50.936;4.654;2024-01-07T05:48:44;2.70;99.90
26336;DHT22;14047;50.936;4.654;2024-01-07T05:51:11;2.80;99.90
26336;DHT22;14047;50.936;4.654;2024-01-07T05:53:38;2.60;99.90
26336;DHT22;14047;50.936;4.654;2024-01-07T05:56:04;2.60;99.90
26336;DHT22;14047;50.936;4.654;2024-01-07T05:58:30;2.70;99.90
26336;DHT22;14047;50.936;4.654;2024-01-07T06:00:56;2.80;99.90
26336;DHT22;14047;50.936;4.654;2024-01-07T06:03:22;3.10;99.90
26336;DHT22;14047;50.936;4.654;2024-01-07T06:05:48;3.10;99.90
26336;DHT22;14047;50.936;4.654;2024-01-07T06:08:14;3.20;99.90
26336;DHT22;14047;50.936;4.654;2024-01-07T06:10:40;3.30;99.90
26336;DHT22;14047;50.936;4.654;2024-01-07T06:13:06;3.30;99.90
26336;DHT22;14047;50.936;4.654;2024-01-07T06:15:32;3.30;99.90
26336;DHT22;14047;50.936;4.654;2024-01-07T06:17:58;3.10;99.90
26336;DHT22;14047;50.936;4.654;2024-01-07T06:20:24;2.60;99.90
26336;DHT22;14047;50.936;4.654;2024-01-07T06:22:50;2.40;99.90
26336;DHT22;14047;50.936;4.654;2024-01-07T06:25:16;2.50;99.90
26336;DHT22;14047;50.936;4.654;2024-01-07T06:27:42;2.50;99.90
26336;DHT22;14047;50.936;4.654;2024-01-07T06:30:08;2.50;99.90
26336;DHT22;14047;50.936;4.654;2024-01-07T06:32:35;2.60;99.90
26336;DHT22;14047;50.936;4.654;2024-01-07T06:35:01;2.80;99.90
26336;DHT22;14047;50.936;4.654;2024-01-07T06:37:29;2.80;99.90
26336;DHT22;14047;50.936;4.654;2024-01-07T06:39:56;2.70;99.90
26336;DHT22;14047;50.936;4.654;2024-01-07T06:42:22;2.50;99.90
26336;DHT22;14047;50.936;4.654;2024-01-07T06:44:48;2.50;99.90
26336;DHT22;14047;50.936;4.654;2024-01-07T06:47:14;2.40;99.90
26336;DHT22;14047;50.936;4.654;2024-01-07T06:49:40;2.50;99.90
26336;DHT22;14047;50.936;4.654;2024-01-07T06:52:06;2.60;99.90
26336;DHT22;14047;50.936;4.654;2024-01-07T06:54:32;2.50;99.90
26336;DHT22;14047;50.936;4.654;2024-01-07T06:56:59;2.50;99.90
26336;DHT22;14047;50.936;4.654;2024-01-07T06:59:25;2.60;99.90
26336;DHT22;14047;50.936;4.654;2024-01-07T07:01:51;2.50;99.90
26336;DHT22;14047;50.936;4.654;2024-01-07T07:04:17;2.50;99.90
26336;DHT22;14047;50.936;4.654;2024-01-07T07:06:43;2.60;99.90
26336;DHT22;14047;50.936;4.654;2024-01-07T07:09:09;2.70;99.90
26336;DHT22;14047;50.936;4.654;2024-01-07T07:11:37;2.60;99.90
26336;DHT22;14047;50.936;4.654;2024-01-07T07:14:03;2.50;99.90
26336;DHT22;14047;50.936;4.654;2024-01-07T07:16:29;2.50;99.90
26336;DHT22;14047;50.936;4.654;2024-01-07T07:18:55;2.60;99.90
26336;DHT22;14047;50.936;4.654;2024-01-07T07:21:21;2.30;99.90
26336;DHT22;14047;50.936;4.654;2024-01-07T07:23:47;2.30;99.90
26336;DHT22;14047;50.936;4.654;2024-01-07T07:26:13;2.40;99.90
26336;DHT22;14047;50.936;4.654;2024-01-07T07:28:39;2.30;99.90
26336;DHT22;14047;50.936;4.654;2024-01-07T07:31:05;2.30;99.90
26336;DHT22;14047;50.936;4.654;2024-01-07T07:33:30;2.30;99.90
26336;DHT22;14047;50.936;4.654;2024-01-07T07:35:56;2.50;99.90
26336;DHT22;14047;50.936;4.654;2024-01-07T07:38:23;2.40;99.90
26336;DHT22;14047;50.936;4.654;2024-01-07T07:40:49;2.40;99.90
26336;DHT22;14047;50.936;4.654;2024-01-07T07:43:21;2.40;99.90
26336;DHT22;14047;50.936;4.654;2024-01-07T07:45:47;2.60;99.90
26336;DHT22;14047;50.936;4.654;2024-01-07T07:48:13;2.40;99.90
26336;DHT22;14047;50.936;4.654;2024-01-07T07:50:39;2.60;99.90
26336;DHT22;14047;50.936;4.654;2024-01-07T07:53:06;2.80;99.90
26336;DHT22;14047;50.936;4.654;2024-01-07T07:55:32;2.60;99.90
26336;DHT22;14047;50.936;4.654;2024-01-07T07:57:58;2.50;99.90
26336;DHT22;14047;50.936;4.654;2024-01-07T08:00:24;2.40;99.90
26336;DHT22;14047;50.936;4.654;2024-01-07T08:02:50;2.40;99.90
26336;DHT22;14047;50.936;4.654;2024-01-07T08:05:16;2.40;99.90
26336;DHT22;14047;50.936;4.654;2024-01-07T08:07:42;2.40;99.90
26336;DHT22;14047;50.936;4.654;2024-01-07T08:10:08;2.30;99.90
26336;DHT22;14047;50.936;4.654;2024-01-07T08:12:35;2.40;99.90
26336;DHT22;14047;50.936;4.654;2024-01-07T08:15:01;2.20;99.90
26336;DHT22;14047;50.936;4.654;2024-01-07T08:17:28;2.20;99.90
26336;DHT22;14047;50.936;4.654;2024-01-07T08:19:56;2.40;99.90
26336;DHT22;14047;50.936;4.654;2024-01-07T08:22:22;2.30;99.90
26336;DHT22;14047;50.936;4.654;2024-01-07T08:24:48;2.40;99.90
26336;DHT22;14047;50.936;4.654;2024-01-07T08:27:14;2.40;99.90
26336;DHT22;14047;50.936;4.654;2024-01-07T08:29:44;2.20;99.90
26336;DHT22;14047;50.936;4.654;2024-01-07T08:32:10;2.10;99.90
26336;DHT22;14047;50.936;4.654;2024-01-07T08:34:38;2.30;99.90
26336;DHT22;14047;50.936;4.654;2024-01-07T08:37:05;2.50;99.90
26336;DHT22;14047;50.936;4.654;2024-01-07T08:39:31;2.40;99.90
26336;DHT22;14047;50.936;4.654;2024-01-07T08:41:57;2.50;99.90
26336;DHT22;14047;50.936;4.654;2024-01-07T08:44:23;2.40;99.90
26336;DHT22;14047;50.936;4.654;2024-01-07T08:46:52;2.50;99.90
26336;DHT22;14047;50.936;4.654;2024-01-07T08:49:18;2.50;99.90
26336;DHT22;14047;50.936;4.654;2024-01-07T08:51:44;2.30;99.90
26336;DHT22;14047;50.936;4.654;2024-01-07T08:54:10;2.30;99.90
26336;DHT22;14047;50.936;4.654;2024-01-07T08:56:36;2.40;99.90
26336;DHT22;14047;50.936;4.654;2024-01-07T08:59:02;2.20;99.90
26336;DHT22;14047;50.936;4.654;2024-01-07T09:01:30;2.20;99.90
26336;DHT22;14047;50.936;4.654;2024-01-07T09:03:56;2.30;99.90
26336;DHT22;14047;50.936;4.654;2024-01-07T09:06:22;2.20;99.90
26336;DHT22;14047;50.936;4.654;2024-01-07T09:08:48;2.30;99.90
26336;DHT22;14047;50.936;4.654;2024-01-07T09:11:14;2.40;99.90
26336;DHT22;14047;50.936;4.654;2024-01-07T09:13:40;2.40;99.90
26336;DHT22;14047;50.936;4.654;2024-01-07T09:16:06;2.50;99.90
26336;DHT22;14047;50.936;4.654;2024-01-07T09:18:34;2.50;99.90
26336;DHT22;14047;50.936;4.654;2024-01-07T09:21:00;2.40;99.90
26336;DHT22;14047;50.936;4.654;2024-01-07T09:23:26;2.30;99.90
26336;DHT22;14047;50.936;4.654;2024-01-07T09:25:52;2.20;99.90
26336;DHT22;14047;50.936;4.654;2024-01-07T09:28:17;2.10;99.90
26336;DHT22;14047;50.936;4.654;2024-01-07T09:30:43;2.20;99.90
26336;DHT22;14047;50.936;4.654;2024-01-07T09:33:09;2.20;99.90
26336;DHT22;14047;50.936;4.654;2024-01-07T09:35:36;2.40;99.90
26336;DHT22;14047;50.936;4.654;2024-01-07T09:38:01;2.40;99.90
26336;DHT22;14047;50.936;4.654;2024-01-07T09:40:28;2.40;99.90
26336;DHT22;14047;50.936;4.654;2024-01-07T09:42:54;2.30;99.90
26336;DHT22;14047;50.936;4.654;2024-01-07T09:45:21;2.20;99.90
26336;DHT22;14047;50.936;4.654;2024-01-07T09:47:49;2.20;99.90
26336;DHT22;14047;50.936;4.654;2024-01-07T09:50:15;2.20;99.90
26336;DHT22;14047;50.936;4.654;2024-01-07T09:52:46;2.20;99.90
26336;DHT22;14047;50.936;4.654;2024-01-07T09:55:25;2.10;99.90
26336;DHT22;14047;50.936;4.654;2024-01-07T09:57:53;2.10;99.90
26336;DHT22;14047;50.936;4.654;2024-01-07T10:00:20;2.00;99.90
26336;DHT22;14047;50.936;4.654;2024-01-07T10:02:46;2.10;99.90
26336;DHT22;14047;50.936;4.654;2024-01-07T10:05:12;2.00;99.90
26336;DHT22;14047;50.936;4.654;2024-01-07T10:07:38;2.00;99.90
26336;DHT22;14047;50.936;4.654;2024-01-07T10:10:17;2.10;99.90
26336;DHT22;14047;50.936;4.654;2024-01-07T10:12:46;2.00;99.90
26336;DHT22;14047;50.936;4.654;2024-01-07T10:15:13;2.00;99.90
26336;DHT22;14047;50.936;4.654;2024-01-07T10:17:42;1.90;99.90
26336;DHT22;14047;50.936;4.654;2024-01-07T10:20:09;1.90;99.90
26336;DHT22;14047;50.936;4.654;2024-01-07T10:22:37;2.00;99.90
26336;DHT22;14047;50.936;4.654;2024-01-07T10:25:04;1.90;99.90
26336;DHT22;14047;50.936;4.654;2024-01-07T10:27:33;2.00;99.90
26336;DHT22;14047;50.936;4.654;2024-01-07T10:29:59;2.00;99.90
26336;DHT22;14047;50.936;4.654;2024-01-07T10:32:25;2.00;99.90
26336;DHT22;14047;50.936;4.654;2024-01-07T10:34:54;2.10;99.90
26336;DHT22;14047;50.936;4.654;2024-01-07T10:37:21;2.20;99.90
26336;DHT22;14047;50.936;4.654;2024-01-07T10:39:48;2.10;99.90
26336;DHT22;14047;50.936;4.654;2024-01-07T10:42:16;2.40;99.90
26336;DHT22;14047;50.936;4.654;2024-01-07T10:44:46;2.30;99.90
26336;DHT22;14047;50.936;4.654;2024-01-07T10:47:13;2.30;99.90
26336;DHT22;14047;50.936;4.654;2024-01-07T10:49:44;2.20;99.90
26336;DHT22;14047;50.936;4.654;2024-01-07T10:52:13;2.10;99.90
26336;DHT22;14047;50.936;4.654;2024-01-07T10:54:42;1.70;99.90
26336;DHT22;14047;50.936;4.654;2024-01-07T11:00:05;1.90;99.90
26336;DHT22;14047;50.936;4.654;2024-01-07T11:02:40;1.90;99.90
26336;DHT22;14047;50.936;4.654;2024-01-07T11:10:37;1.90;99.90
26336;DHT22;14047;50.936;4.654;2024-01-07T11:13:04;1.90;99.90
26336;DHT22;14047;50.936;4.654;2024-01-07T11:15:50;1.80;99.90
26336;DHT22;14047;50.936;4.654;2024-01-07T11:18:23;1.80;99.90
26336;DHT22;14047;50.936;4.654;2024-01-07T11:20:49;1.60;99.90
26336;DHT22;14047;50.936;4.654;2024-01-07T11:26:03;1.60;99.90
26336;DHT22;14047;50.936;4.654;2024-01-07T11:31:10;1.80;99.90
26336;DHT22;14047;50.936;4.654;2024-01-07T11:33:37;1.90;99.90
26336;DHT22;14047;50.936;4.654;2024-01-07T11:36:04;1.80;99.90
26336;DHT22;14047;50.936;4.654;2024-01-07T11:38:30;1.80;99.90
26336;DHT22;14047;50.936;4.654;2024-01-07T11:40:57;1.80;99.90
26336;DHT22;14047;50.936;4.654;2024-01-07T11:43:25;1.90;99.90
26336;DHT22;14047;50.936;4.654;2024-01-07T11:45:51;1.90;99.90
26336;DHT22;14047;50.936;4.654;2024-01-07T11:48:20;2.00;99.90
26336;DHT22;14047;50.936;4.654;2024-01-07T11:50:46;2.00;99.90
26336;DHT22;14047;50.936;4.654;2024-01-07T11:53:12;2.10;99.90
26336;DHT22;14047;50.936;4.654;2024-01-07T11:55:39;2.00;99.90
26336;DHT22;14047;50.936;4.654;2024-01-07T11:58:05;2.10;99.90
26336;DHT22;14047;50.936;4.654;2024-01-07T12:00:31;2.20;99.90
26336;DHT22;14047;50.936;4.654;2024-01-07T12:03:01;2.20;99.90
26336;DHT22;14047;50.936;4.654;2024-01-07T12:05:28;2.10;99.90
26336;DHT22;14047;50.936;4.654;2024-01-07T12:07:54;1.90;99.90
26336;DHT22;14047;50.936;4.654;2024-01-07T12:10:21;1.80;99.90
26336;DHT22;14047;50.936;4.654;2024-01-07T12:12:47;1.80;99.90
26336;DHT22;14047;50.936;4.654;2024-01-07T12:15:14;1.80;99.90
26336;DHT22;14047;50.936;4.654;2024-01-07T12:17:40;1.90;99.90
26336;DHT22;14047;50.936;4.654;2024-01-07T12:20:07;1.90;99.90
26336;DHT22;14047;50.936;4.654;2024-01-07T12:22:40;2.00;99.90
26336;DHT22;14047;50.936;4.654;2024-01-07T12:25:06;2.00;99.90
26336;DHT22;14047;50.936;4.654;2024-01-07T12:27:33;2.10;99.90
26336;DHT22;14047;50.936;4.654;2024-01-07T12:30:00;2.00;99.90
26336;DHT22;14047;50.936;4.654;2024-01-07T12:32:27;1.90;99.90
26336;DHT22;14047;50.936;4.654;2024-01-07T12:34:53;1.80;99.90
26336;DHT22;14047;50.936;4.654;2024-01-07T12:37:19;1.70;99.90
26336;DHT22;14047;50.936;4.654;2024-01-07T12:39:45;1.90;99.90
26336;DHT22;14047;50.936;4.654;2024-01-07T12:42:11;1.90;99.90
26336;DHT22;14047;50.936;4.654;2024-01-07T12:44:39;2.00;99.90
26336;DHT22;14047;50.936;4.654;2024-01-07T12:47:05;2.00;99.90
26336;DHT22;14047;50.936;4.654;2024-01-07T12:49:31;1.90;99.90
26336;DHT22;14047;50.936;4.654;2024-01-07T12:51:57;2.00;99.90
26336;DHT22;14047;50.936;4.654;2024-01-07T12:54:23;1.80;99.90
26336;DHT22;14047;50.936;4.654;2024-01-07T12:56:50;1.80;99.90
26336;DHT22;14047;50.936;4.654;2024-01-07T12:59:17;1.90;99.90
26336;DHT22;14047;50.936;4.654;2024-01-07T13:01:43;1.80;99.90
26336;DHT22;14047;50.936;4.654;2024-01-07T13:04:09;1.80;99.90
26336;DHT22;14047;50.936;4.654;2024-01-07T13:06:36;1.80;99.90
26336;DHT22;14047;50.936;4.654;2024-01-07T13:09:02;2.00;99.90
26336;DHT22;14047;50.936;4.654;2024-01-07T13:11:30;2.00;99.90
26336;DHT22;14047;50.936;4.654;2024-01-07T13:13:57;2.00;99.90
26336;DHT22;14047;50.936;4.654;2024-01-07T13:16:28;1.80;99.90
26336;DHT22;14047;50.936;4.654;2024-01-07T13:18:54;1.90;99.90
26336;DHT22;14047;50.936;4.654;2024-01-07T13:21:21;1.90;99.90
26336;DHT22;14047;50.936;4.654;2024-01-07T13:23:47;1.90;99.90
26336;DHT22;14047;50.936;4.654;2024-01-07T13:26:15;1.80;99.90
26336;DHT22;14047;50.936;4.654;2024-01-07T13:28:41;1.70;99.90
26336;DHT22;14047;50.936;4.654;2024-01-07T13:31:10;1.60;99.90
26336;DHT22;14047;50.936;4.654;2024-01-07T13:33:41;1.60;99.90
26336;DHT22;14047;50.936;4.654;2024-01-07T13:36:07;1.60;99.90
26336;DHT22;14047;50.936;4.654;2024-01-07T13:38:36;1.70;99.90
26336;DHT22;14047;50.936;4.654;2024-01-07T13:41:04;1.60;99.90
26336;DHT22;14047;50.936;4.654;2024-01-07T13:43:30;1.60;99.90
26336;DHT22;14047;50.936;4.654;2024-01-07T13:45:56;1.60;99.90
26336;DHT22;14047;50.936;4.654;2024-01-07T13:48:26;1.70;99.90
26336;DHT22;14047;50.936;4.654;2024-01-07T13:50:52;1.60;99.90
26336;DHT22;14047;50.936;4.654;2024-01-07T13:53:19;1.60;99.90
26336;DHT22;14047;50.936;4.654;2024-01-07T13:55:45;1.60;99.90
26336;DHT22;14047;50.936;4.654;2024-01-07T13:58:12;1.50;99.90
26336;DHT22;14047;50.936;4.654;2024-01-07T14:00:38;1.60;99.90
26336;DHT22;14047;50.936;4.654;2024-01-07T14:03:04;1.60;99.90
26336;DHT22;14047;50.936;4.654;2024-01-07T14:05:30;1.70;99.90
26336;DHT22;14047;50.936;4.654;2024-01-07T14:07:56;1.80;99.90
26336;DHT22;14047;50.936;4.654;2024-01-07T14:14:11;1.70;99.90
26336;DHT22;14047;50.936;4.654;2024-01-07T14:16:37;1.60;99.90
26336;DHT22;14047;50.936;4.654;2024-01-07T14:19:03;1.80;99.90
26336;DHT22;14047;50.936;4.654;2024-01-07T14:21:29;1.70;99.90
26336;DHT22;14047;50.936;4.654;2024-01-07T14:23:56;1.70;99.90
26336;DHT22;14047;50.936;4.654;2024-01-07T14:26:22;1.70;99.90
26336;DHT22;14047;50.936;4.654;2024-01-07T14:28:52;1.90;99.90
26336;DHT22;14047;50.936;4.654;2024-01-07T14:31:19;1.90;99.90
26336;DHT22;14047;50.936;4.654;2024-01-07T14:33:45;2.00;99.90
26336;DHT22;14047;50.936;4.654;2024-01-07T14:36:11;1.80;99.90
26336;DHT22;14047;50.936;4.654;2024-01-07T14:38:44;1.80;99.90
26336;DHT22;14047;50.936;4.654;2024-01-07T14:41:10;1.70;99.90
26336;DHT22;14047;50.936;4.654;2024-01-07T14:43:36;1.80;99.90
26336;DHT22;14047;50.936;4.654;2024-01-07T14:46:03;2.00;99.90
26336;DHT22;14047;50.936;4.654;2024-01-07T14:48:29;2.00;99.90
26336;DHT22;14047;50.936;4.654;2024-01-07T14:50:56;1.80;99.90
26336;DHT22;14047;50.936;4.654;2024-01-07T14:53:22;1.80;99.90
26336;DHT22;14047;50.936;4.654;2024-01-07T14:55:47;1.60;99.90
26336;DHT22;14047;50.936;4.654;2024-01-07T14:58:14;1.50;99.90
26336;DHT22;14047;50.936;4.654;2024-01-07T15:00:40;1.60;99.90
26336;DHT22;14047;50.936;4.654;2024-01-07T15:03:06;1.70;99.90
26336;DHT22;14047;50.936;4.654;2024-01-07T15:05:32;1.60;99.90
26336;DHT22;14047;50.936;4.654;2024-01-07T15:07:58;1.80;99.90
26336;DHT22;14047;50.936;4.654;2024-01-07T15:10:25;1.80;99.90
26336;DHT22;14047;50.936;4.654;2024-01-07T15:12:50;1.60;99.90
26336;DHT22;14047;50.936;4.654;2024-01-07T15:15:16;1.70;99.90
26336;DHT22;14047;50.936;4.654;2024-01-07T15:17:44;1.50;99.90
26336;DHT22;14047;50.936;4.654;2024-01-07T15:20:10;1.50;99.90
26336;DHT22;14047;50.936;4.654;2024-01-07T15:22:37;1.40;99.90
26336;DHT22;14047;50.936;4.654;2024-01-07T15:25:03;1.40;99.90
26336;DHT22;14047;50.936;4.654;2024-01-07T15:27:30;1.50;99.90
26336;DHT22;14047;50.936;4.654;2024-01-07T15:29:56;1.40;99.90
26336;DHT22;14047;50.936;4.654;2024-01-07T15:32:22;1.50;99.90
26336;DHT22;14047;50.936;4.654;2024-01-07T15:34:48;1.60;99.90
26336;DHT22;14047;50.936;4.654;2024-01-07T15:37:14;1.50;99.90
26336;DHT22;14047;50.936;4.654;2024-01-07T15:39:40;1.40;99.90
26336;DHT22;14047;50.936;4.654;2024-01-07T15:42:06;1.30;99.90
26336;DHT22;14047;50.936;4.654;2024-01-07T15:44:32;1.30;99.90
26336;DHT22;14047;50.936;4.654;2024-01-07T15:46:59;1.20;99.90
26336;DHT22;14047;50.936;4.654;2024-01-07T15:49:25;1.40;99.90
26336;DHT22;14047;50.936;4.654;2024-01-07T15:51:51;1.20;99.90
26336;DHT22;14047;50.936;4.654;2024-01-07T15:54:17;1.10;99.90
26336;DHT22;14047;50.936;4.654;2024-01-07T15:56:43;1.10;99.90
26336;DHT22;14047;50.936;4.654;2024-01-07T15:59:09;1.10;99.90